Time;durP1;ratioP1;P1;durP2;ratioP2;P2;SDS_P1;SDS_P2;PMS_P1;PMS_P2;Temp;Humidity;BMP_temperature;BMP_pressure;BME280_temperature;BME280_humidity;BME280_pressure;Samples;Min_cycle;Max_cycle;Signal;HPM_P1;HPM_P2
2022/05/13 00:01:55;;;;;;;5.60;5.10;;;17.80;79.80;;;17.17;69.76;98125.94;5076396;28;20460;-74
2022/05/13 00:04:23;;;;;;;5.23;4.73;;;17.90;79.50;;;17.02;69.95;98115.66;5084065;28;20468;-73
2022/05/13 00:06:50;;;;;;;5.50;4.83;;;17.90;79.50;;;17.09;69.87;98113.56;5080062;28;20931;-75
2022/05/13 00:09:18;;;;;;;6.13;5.63;;;17.90;79.40;;;17.11;70.35;98128.59;5084599;28;20547;-74
2022/05/13 00:11:45;;;;;;;5.60;5.10;;;18.00;79.60;;;16.99;70.81;98120.56;5067269;28;20535;-74
2022/05/13 00:14:13;;;;;;;6.10;5.57;;;17.90;80.00;;;16.89;71.13;98108.66;5083460;28;20811;-74
2022/05/13 00:16:41;;;;;;;6.23;5.20;;;17.90;80.30;;;17.00;71.13;98132.31;5079609;28;20539;-76
2022/05/13 00:19:10;;;;;;;5.80;5.30;;;17.80;80.50;;;16.91;71.55;98117.41;5079981;28;20927;-72
2022/05/13 00:21:38;;;;;;;6.33;5.73;;;17.80;80.70;;;17.03;71.36;98125.50;5085125;28;20530;-72
2022/05/13 00:24:07;;;;;;;5.77;5.13;;;17.80;80.80;;;16.36;72.02;98041.75;5080351;28;20467;-71
2022/05/13 00:26:34;;;;;;;5.53;5.10;;;17.70;80.90;;;16.75;72.11;98124.56;5082203;28;20456;-72
2022/05/13 00:29:01;;;;;;;9.17;6.07;;;17.60;81.20;;;16.87;71.90;98133.47;5085423;28;20491;-73
2022/05/13 00:31:30;;;;;;;6.73;5.63;;;17.60;81.30;;;16.80;71.90;98132.84;5085892;28;21012;-71
2022/05/13 00:33:57;;;;;;;6.63;6.03;;;17.60;81.30;;;16.87;72.10;98136.19;5077044;28;21312;-71
2022/05/13 00:36:24;;;;;;;6.77;6.17;;;17.60;81.40;;;16.90;71.94;98132.94;5086869;28;20459;-71
2022/05/13 00:38:51;;;;;;;6.53;6.03;;;17.70;81.60;;;16.91;72.03;98128.34;5097199;28;20941;-73
2022/05/13 00:41:18;;;;;;;6.73;6.13;;;17.70;81.80;;;16.70;72.95;98112.53;5090277;28;20546;-73
2022/05/13 00:43:51;;;;;;;6.67;6.07;;;17.60;82.30;;;16.68;73.52;98120.13;5084768;28;20448;-75
2022/05/13 00:46:18;;;;;;;7.20;6.70;;;17.60;82.90;;;16.64;74.09;98123.63;5088171;28;20464;-76
2022/05/13 00:48:48;;;;;;;8.13;7.00;;;17.50;83.30;;;16.60;74.30;98123.28;5086842;28;20985;-76
2022/05/13 00:51:19;;;;;;;7.70;7.10;;;17.50;83.50;;;16.55;74.74;98123.22;5080001;28;20448;-74
2022/05/13 00:53:47;;;;;;;6.53;5.93;;;17.40;84.00;;;16.50;75.24;98134.09;5086041;28;20481;-73
2022/05/13 00:56:15;;;;;;;8.10;6.90;;;17.40;84.40;;;16.56;74.35;98117.53;5081731;28;20459;-76
2022/05/13 00:58:47;;;;;;;7.50;6.90;;;17.40;84.40;;;16.65;74.78;98133.44;5081141;28;20454;-75
2022/05/13 01:01:15;;;;;;;7.30;6.70;;;17.40;84.50;;;16.70;74.64;98130.81;5077668;28;20448;-75
2022/05/13 01:03:42;;;;;;;6.90;6.40;;;17.50;84.40;;;16.71;74.60;98130.53;5084334;28;20462;-72
2022/05/13 01:06:14;;;;;;;7.40;6.70;;;17.50;84.50;;;16.70;74.67;98131.63;5084059;28;20539;-74
2022/05/13 01:08:41;;;;;;;7.00;6.50;;;17.50;84.30;;;16.84;73.97;98143.00;5084540;28;20472;-74
2022/05/13 01:11:15;;;;;;;6.73;6.23;;;17.60;84.10;;;16.79;74.07;98142.91;5071036;28;20531;-75
2022/05/13 01:13:44;;;;;;;7.53;6.80;;;17.60;84.00;;;16.74;74.17;98144.75;5082644;28;20871;-73
2022/05/13 01:16:12;;;;;;;8.23;7.03;;;17.60;84.30;;;16.80;74.09;98143.75;5073313;28;21187;-74
2022/05/13 01:18:40;;;;;;;7.37;6.83;;;17.60;84.30;;;16.74;74.25;98139.28;5082330;28;20458;-78
2022/05/13 01:21:13;;;;;;;9.87;6.90;;;17.60;84.30;;;16.73;74.44;98133.03;5084842;28;20499;-77
2022/05/13 01:23:45;;;;;;;7.90;7.20;;;17.60;84.40;;;16.67;74.58;98128.56;5085991;28;20510;-74
2022/05/13 01:26:16;;;;;;;7.93;7.13;;;17.50;84.40;;;16.60;74.75;98123.28;5072688;28;20480;-73
2022/05/13 01:28:49;;;;;;;7.60;6.90;;;17.50;84.50;;;16.67;73.56;98129.41;5074859;28;20927;-74
2022/05/13 01:31:25;;;;;;;7.57;6.87;;;17.50;84.00;;;16.63;74.02;98121.97;5073566;28;21086;-78
2022/05/13 01:33:53;;;;;;;6.63;6.03;;;17.50;84.10;;;16.54;73.73;98116.97;5080253;28;20451;-74
2022/05/13 01:36:21;;;;;;;7.40;6.73;;;17.40;84.00;;;16.57;73.97;98131.97;5079506;28;20463;-74
2022/05/13 01:38:51;;;;;;;7.03;6.47;;;17.40;84.20;;;16.60;74.06;98120.56;5098572;28;20471;-74
2022/05/13 01:41:20;;;;;;;7.87;7.17;;;17.40;84.40;;;16.48;74.94;98122.59;5081881;28;20492;-76
2022/05/13 01:43:50;;;;;;;7.90;7.10;;;17.30;84.70;;;16.41;75.38;98120.88;5080006;28;20455;-77
2022/05/13 01:46:20;;;;;;;7.47;6.77;;;17.30;85.30;;;16.40;75.30;98119.22;5082676;28;20477;-74
2022/05/13 01:48:47;;;;;;;8.87;7.77;;;17.30;85.40;;;16.47;75.56;98121.75;5084190;28;20496;-74
2022/05/13 01:51:16;;;;;;;8.03;7.27;;;17.30;85.90;;;16.52;75.21;98131.94;5087183;28;20523;-74
2022/05/13 01:53:44;;;;;;;10.57;7.23;;;17.30;85.80;;;16.42;75.71;98122.50;5089193;28;20448;-77
2022/05/13 01:56:12;;;;;;;10.70;7.80;;;17.30;85.90;;;16.54;75.20;98121.59;5077698;28;20595;-73
2022/05/13 01:58:40;;;;;;;8.10;7.40;;;17.40;85.80;;;16.49;75.94;98124.25;5082187;28;20448;-72
2022/05/13 02:01:09;;;;;;;8.37;7.53;;;17.30;85.90;;;16.54;75.36;98119.69;5083319;28;20840;-76
2022/05/13 02:03:45;;;;;;;8.03;7.17;;;17.40;86.00;;;16.46;76.17;98122.84;5077044;28;20455;-72
2022/05/13 02:06:14;;;;;;;9.47;7.97;;;17.30;85.90;;;16.51;75.00;98101.09;5098190;27;20548;-72
2022/05/13 02:08:41;;;;;;;8.50;7.80;;;17.40;85.90;;;16.52;75.44;98115.56;5083480;28;20459;-73
2022/05/13 02:11:09;;;;;;;8.20;7.40;;;17.30;86.00;;;16.57;75.27;98118.34;5082969;28;21009;-74
2022/05/13 02:13:38;;;;;;;7.90;7.20;;;17.40;86.00;;;16.50;75.23;98117.72;5079535;28;20448;-73
2022/05/13 02:16:06;;;;;;;8.30;7.60;;;17.30;86.00;;;16.26;75.56;98079.75;5074159;28;20459;-75
2022/05/13 02:18:33;;;;;;;7.70;7.00;;;17.30;86.20;;;16.34;76.27;98116.66;5083330;28;20865;-75
2022/05/13 02:21:01;;;;;;;8.17;7.33;;;17.20;86.60;;;16.23;76.54;98104.78;5084167;28;20554;-77
2022/05/13 02:23:28;;;;;;;8.80;8.00;;;17.20;87.10;;;16.27;76.88;98114.13;5080355;28;20559;-72
2022/05/13 02:26:01;;;;;;;8.23;7.50;;;17.10;87.20;;;15.97;76.92;98079.88;5065871;28;20959;-72
2022/05/13 02:28:30;;;;;;;8.57;7.80;;;17.10;87.70;;;16.31;76.58;98114.44;5089795;28;20459;-75
2022/05/13 02:31:00;;;;;;;8.47;7.67;;;17.10;87.60;;;16.27;77.05;98119.56;5083614;28;20985;-77
2022/05/13 02:33:28;;;;;;;7.70;6.90;;;17.10;87.60;;;16.04;77.53;98102.34;5087145;28;20452;-75
2022/05/13 02:35:56;;;;;;;9.13;8.17;;;17.00;88.00;;;16.24;77.39;98114.63;5089719;28;20462;-73
2022/05/13 02:38:23;;;;;;;8.53;7.70;;;17.00;88.20;;;16.17;77.22;98114.78;5087408;28;20472;-75
2022/05/13 02:43:35;;;;;;;8.10;7.30;;;17.10;88.30;;;16.25;77.27;98110.81;5080201;28;20498;-80
2022/05/13 02:46:04;;;;;;;9.27;7.43;;;17.10;88.30;;;16.23;77.34;98102.91;5086228;28;20471;-77
2022/05/13 02:48:32;;;;;;;9.60;8.70;;;17.10;88.20;;;16.23;77.21;98113.81;5088299;28;20498;-74
2022/05/13 02:50:59;;;;;;;8.57;7.77;;;17.10;88.30;;;15.89;76.50;98039.44;5104944;27;21018;-75
2022/05/13 02:53:27;;;;;;;9.53;8.23;;;17.20;87.90;;;16.22;76.81;98090.34;5090888;28;20603;-76
2022/05/13 02:55:54;;;;;;;8.43;7.53;;;17.20;87.80;;;16.26;76.84;98101.56;5090441;28;20507;-73
2022/05/13 02:58:21;;;;;;;8.43;7.53;;;17.10;88.20;;;16.18;77.10;98093.84;5081294;28;20542;-76
2022/05/13 03:00:48;;;;;;;8.13;7.33;;;17.10;87.70;;;16.04;76.46;98060.63;5082759;28;20610;-75
2022/05/13 03:03:17;;;;;;;9.33;8.53;;;17.20;87.80;;;16.41;75.80;98104.50;5086797;28;20447;-74
2022/05/13 03:05:44;;;;;;;8.73;7.83;;;17.20;87.30;;;16.40;76.29;98104.78;5087798;28;20490;-77
2022/05/13 03:08:11;;;;;;;8.10;7.40;;;17.20;87.30;;;16.45;75.80;98104.00;5080320;28;21323;-75
2022/05/13 03:10:40;;;;;;;9.03;8.13;;;17.30;87.20;;;16.36;75.98;98107.16;5087320;28;20685;-74
2022/05/13 03:13:09;;;;;;;8.53;7.67;;;17.20;87.20;;;16.21;76.32;98082.41;5082532;28;20531;-75
2022/05/13 03:15:38;;;;;;;8.20;7.40;;;17.20;87.20;;;16.41;75.83;98090.88;5077735;28;20460;-75
2022/05/13 03:18:05;;;;;;;7.80;7.10;;;17.20;87.00;;;16.36;76.41;98104.44;5074805;28;20458;-75
2022/05/13 03:20:34;;;;;;;8.00;7.23;;;17.20;87.10;;;16.44;76.29;98100.47;5089040;28;20948;-74
2022/05/13 03:23:01;;;;;;;8.10;7.30;;;17.20;87.40;;;16.30;76.92;98094.53;5081470;28;20562;-74
2022/05/13 03:25:29;;;;;;;10.80;8.00;;;17.20;87.50;;;16.36;75.98;98096.25;5082604;28;20479;-75
2022/05/13 03:27:56;;;;;;;8.93;8.20;;;17.20;87.30;;;16.46;75.90;98097.50;5084113;28;20499;-74
2022/05/13 03:30:26;;;;;;;8.80;7.77;;;17.30;87.30;;;16.42;76.10;98092.53;5092239;28;21023;-73
2022/05/13 03:32:55;;;;;;;8.50;7.73;;;17.30;87.40;;;16.41;76.31;98103.69;5085860;28;20478;-74
2022/05/13 03:35:24;;;;;;;9.20;8.30;;;17.30;87.40;;;16.48;76.43;98098.88;5081689;28;20528;-73
2022/05/13 03:37:53;;;;;;;9.83;8.13;;;17.30;87.60;;;16.47;76.02;98096.41;5083175;28;20551;-73
2022/05/13 03:40:20;;;;;;;12.83;8.17;;;17.30;87.40;;;16.55;75.65;98098.69;5080507;28;20865;-72
2022/05/13 03:42:48;;;;;;;8.10;7.43;;;17.30;87.40;;;16.39;76.58;98098.47;5082103;28;20528;-71
2022/05/13 03:45:20;;;;;;;8.40;7.60;;;17.30;87.30;;;16.32;76.92;98103.31;5080625;28;20464;-71
2022/05/13 03:47:49;;;;;;;9.93;7.70;;;17.20;87.80;;;16.40;76.22;98091.94;5064999;28;21040;-73
2022/05/13 03:50:16;;;;;;;8.10;7.40;;;17.20;87.50;;;16.38;76.28;98099.56;5081044;28;20461;-72
2022/05/13 03:52:43;;;;;;;9.27;8.43;;;17.30;87.40;;;16.45;76.02;98106.72;5076733;28;20526;-74
2022/05/13 03:55:12;;;;;;;10.90;8.47;;;17.30;87.50;;;16.34;76.85;98100.31;5077098;28;20553;-74
2022/05/13 03:57:40;;;;;;;7.80;7.03;;;17.20;87.40;;;16.49;75.83;98099.72;5075467;28;20476;-72
2022/05/13 04:00:09;;;;;;;9.10;7.33;;;17.30;87.50;;;16.23;75.53;98053.00;5081774;28;20534;-75
2022/05/13 04:02:36;;;;;;;8.83;7.33;;;17.30;87.10;;;16.56;75.78;98094.88;5082461;28;20456;-76
2022/05/13 04:10:36;;;;;;;8.60;7.90;;;17.30;87.80;;;16.29;77.82;98098.34;5084444;28;20451;-75
2022/05/13 04:16:06;;;;;;;10.03;9.03;;;17.20;88.90;;;16.37;77.49;98103.38;5078006;28;20485;-73
2022/05/13 04:18:37;;;;;;;9.47;8.30;;;17.30;89.40;;;15.95;77.91;98049.34;5088535;28;20490;-72
2022/05/13 04:21:07;;;;;;;9.57;8.77;;;17.30;89.30;;;16.56;76.79;98116.69;5074588;28;20550;-73
2022/05/13 04:23:38;;;;;;;10.57;9.47;;;17.30;88.90;;;16.51;76.97;98108.47;5079042;28;21266;-72
2022/05/13 04:26:06;;;;;;;10.63;9.70;;;17.40;88.60;;;16.55;76.95;98109.59;5078412;28;20468;-71
2022/05/13 04:28:33;;;;;;;10.13;9.23;;;17.40;88.70;;;16.58;76.84;98117.28;5082540;28;20813;-72
2022/05/13 04:31:01;;;;;;;10.37;9.27;;;17.40;88.60;;;16.50;76.70;98096.72;5084295;28;20512;-73
2022/05/13 04:33:28;;;;;;;9.80;8.93;;;17.40;88.40;;;16.64;76.60;98124.47;5086880;28;20549;-73
2022/05/13 04:35:56;;;;;;;10.43;9.43;;;17.50;88.30;;;16.74;76.40;98122.94;5083688;28;20550;-72
2022/05/13 04:38:23;;;;;;;11.00;8.40;;;17.50;88.40;;;16.64;76.64;98129.91;5075120;28;20545;-80
2022/05/13 04:40:50;;;;;;;10.00;9.00;;;17.50;88.10;;;16.62;76.23;98104.81;5079949;28;20483;-80
2022/05/13 04:43:17;;;;;;;8.37;7.67;;;17.60;87.80;;;17.01;75.25;98123.03;5076084;28;20525;-81
2022/05/13 04:45:44;;;;;;;11.00;9.90;;;17.80;87.40;;;16.26;75.03;98027.97;5076468;28;20787;-85
2022/05/13 04:48:18;;;;;;;10.77;9.40;;;17.80;87.00;;;16.89;75.45;98125.84;5076099;28;20509;-76
2022/05/13 04:50:51;;;;;;;10.10;9.20;;;17.80;87.10;;;16.98;75.12;98135.25;5076205;28;20452;-75
2022/05/13 04:53:21;;;;;;;10.87;9.13;;;17.70;87.20;;;17.01;74.88;98135.84;5078773;28;20443;-77
2022/05/13 04:55:50;;;;;;;9.30;8.20;;;17.80;86.80;;;16.90;75.41;98141.13;5076567;28;20483;-79
2022/05/13 04:58:18;;;;;;;9.60;8.70;;;17.70;87.00;;;16.85;75.68;98154.72;5086410;28;20958;-78
2022/05/13 05:00:48;;;;;;;9.80;8.97;;;17.70;86.90;;;16.82;75.72;98147.06;5085482;28;20528;-82
2022/05/13 05:03:16;;;;;;;9.93;8.90;;;17.70;87.20;;;16.76;75.68;98142.63;5080963;28;20697;-78
2022/05/13 05:05:44;;;;;;;8.63;7.93;;;17.70;87.10;;;16.87;75.64;98154.47;5080615;28;20619;-76
2022/05/13 05:08:12;;;;;;;9.93;8.93;;;17.70;87.00;;;16.85;75.38;98147.38;5080390;28;20550;-82
2022/05/13 05:10:40;;;;;;;8.70;7.87;;;17.70;86.60;;;17.02;74.95;98148.41;5081307;28;20482;-78
2022/05/13 05:13:08;;;;;;;9.63;8.57;;;17.80;87.00;;;17.22;73.63;98150.56;5075748;28;20485;-78
2022/05/13 05:15:39;;;;;;;12.00;9.97;;;18.00;86.00;;;17.23;73.62;98155.78;5085432;28;20544;-77
2022/05/13 05:18:07;;;;;;;11.43;9.87;;;18.10;85.60;;;17.19;74.12;98165.53;5080692;28;20469;-77
2022/05/13 05:20:34;;;;;;;10.77;9.77;;;18.10;85.60;;;17.03;74.91;98159.09;5081707;28;20454;-79
2022/05/13 05:23:01;;;;;;;10.40;9.30;;;18.00;85.80;;;17.09;73.65;98127.22;5095192;28;20998;-79
2022/05/13 05:25:29;;;;;;;9.73;8.90;;;18.10;85.70;;;17.27;73.67;98156.91;5077769;28;20475;-83
2022/05/13 05:27:57;;;;;;;10.07;8.33;;;18.10;85.30;;;17.31;73.38;98159.94;5081234;28;20866;-78
2022/05/13 05:30:26;;;;;;;9.47;8.57;;;18.20;85.10;;;17.37;73.34;98158.09;5086429;28;20436;-76
2022/05/13 05:32:54;;;;;;;10.13;8.60;;;18.20;85.20;;;17.46;72.79;98158.47;5074725;28;20488;-78
2022/05/13 05:35:25;;;;;;;9.80;8.90;;;18.20;84.70;;;17.71;72.23;98152.44;5079230;28;20567;-74
2022/05/13 05:37:52;;;;;;;9.93;8.90;;;18.40;84.50;;;17.78;71.51;98163.16;5081032;28;20448;-77
2022/05/13 05:40:20;;;;;;;9.80;8.87;;;18.60;84.00;;;17.78;71.58;98160.41;5077628;28;20456;-82
2022/05/13 05:42:49;;;;;;;10.53;7.57;;;18.60;83.80;;;17.56;70.46;98126.63;5072520;28;20459;-79
2022/05/13 05:45:18;;;;;;;7.80;7.10;;;18.70;82.90;;;17.87;70.02;98166.22;5098935;28;20445;-74
2022/05/13 05:47:46;;;;;;;8.93;7.83;;;18.70;82.40;;;17.82;69.90;98164.28;5081201;28;20501;-74
2022/05/13 05:50:19;;;;;;;8.50;7.70;;;18.70;82.20;;;17.91;69.46;98178.28;5081741;28;20945;-76
2022/05/13 05:52:47;;;;;;;9.00;7.60;;;18.70;82.00;;;17.81;70.02;98173.56;5075715;28;20815;-74
2022/05/13 05:58:04;;;;;;;9.40;7.63;;;19.00;81.70;;;18.13;68.83;98167.28;5074389;28;20491;-73
2022/05/13 06:00:37;;;;;;;10.13;8.03;;;19.00;81.30;;;18.31;67.92;98166.06;5084702;28;20925;-73
2022/05/13 06:03:05;;;;;;;8.60;7.90;;;19.10;81.10;;;18.09;68.30;98163.44;5078895;28;20506;-71
2022/05/13 06:05:34;;;;;;;10.87;7.40;;;19.10;80.90;;;18.05;68.54;98174.06;5084958;28;20455;-72
2022/05/13 06:08:02;;;;;;;7.20;6.50;;;18.90;81.00;;;18.34;67.23;98186.56;5081983;28;21303;-72
2022/05/13 06:10:31;;;;;;;8.37;7.57;;;19.10;80.40;;;18.50;66.12;98184.78;5082163;28;20604;-71
2022/05/13 06:12:59;;;;;;;12.30;7.70;;;19.20;79.60;;;18.38;66.51;98183.06;5077576;28;21322;-72
2022/05/13 06:15:26;;;;;;;8.00;7.30;;;19.30;79.50;;;18.74;65.18;98189.88;5078001;28;20785;-73
2022/05/13 06:17:56;;;;;;;9.90;6.87;;;19.50;79.00;;;18.81;64.66;98196.75;5074867;28;20455;-71
2022/05/13 06:20:27;;;;;;;7.53;6.73;;;19.60;78.30;;;18.76;65.03;98193.16;5104175;27;20456;-71
2022/05/13 06:22:56;;;;;;;7.27;6.67;;;19.60;78.20;;;18.83;64.17;98188.25;5070503;28;20462;-73
2022/05/13 06:25:24;;;;;;;7.73;6.90;;;19.70;77.60;;;19.07;63.43;98180.47;5075055;28;20482;-73
2022/05/13 06:27:54;;;;;;;7.43;5.97;;;19.80;77.30;;;19.31;62.54;98177.28;5057123;28;20482;-74
2022/05/13 06:30:25;;;;;;;10.20;6.87;;;20.00;76.80;;;19.12;62.48;98176.94;5078579;28;20455;-73
2022/05/13 06:32:53;;;;;;;9.53;6.03;;;20.10;76.00;;;19.24;61.24;98188.50;5073338;28;20462;-70
2022/05/13 06:35:22;;;;;;;7.47;5.57;;;20.10;74.70;;;18.95;60.34;98186.13;5080645;28;20458;-71
2022/05/13 06:37:51;;;;;;;6.90;5.47;;;19.90;73.30;;;18.76;59.56;98193.16;5073824;28;20448;-73
2022/05/13 06:40:22;;;;;;;7.30;4.80;;;19.80;72.30;;;18.82;58.74;98197.56;5080052;28;20454;-72
2022/05/13 06:42:49;;;;;;;6.03;5.40;;;19.70;71.40;;;18.91;59.38;98184.19;5075163;28;20468;-72
2022/05/13 06:45:16;;;;;;;4.43;4.03;;;19.80;71.80;;;19.16;57.44;98145.19;5075229;28;20601;-71
2022/05/13 06:47:44;;;;;;;6.13;4.80;;;20.10;71.10;;;19.22;58.04;98190.69;5076483;28;20499;-71
2022/05/13 06:50:16;;;;;;;5.57;4.40;;;20.20;70.80;;;19.18;56.85;98189.53;5079142;28;20542;-71
2022/05/13 06:52:43;;;;;;;4.60;4.10;;;20.10;69.40;;;19.11;56.81;98189.81;5084616;28;20455;-73
2022/05/13 06:55:12;;;;;;;6.27;4.17;;;19.90;68.90;;;19.01;57.39;98177.97;5082096;28;20461;-71
2022/05/13 06:57:40;;;;;;;7.20;4.17;;;20.00;69.20;;;18.73;57.93;98194.50;5080645;28;20459;-71
2022/05/13 07:00:11;;;;;;;4.63;3.63;;;19.70;68.80;;;18.55;57.99;98193.03;5079969;28;20542;-73
2022/05/13 07:02:38;;;;;;;5.87;4.23;;;19.60;68.70;;;18.28;57.99;98188.47;5082632;28;20552;-74
2022/05/13 07:05:07;;;;;;;8.10;3.90;;;19.30;68.40;;;18.18;58.10;98183.72;5076508;28;20881;-73
2022/05/13 07:07:34;;;;;;;4.00;3.57;;;19.10;68.30;;;18.08;57.41;98181.75;5076041;28;20471;-73
2022/05/13 07:10:02;;;;;;;5.97;3.70;;;19.00;67.60;;;18.18;57.22;98193.84;5076691;28;20448;-71
2022/05/13 07:12:30;;;;;;;3.97;3.13;;;19.10;67.60;;;18.18;56.31;98191.13;5079192;28;20628;-71
2022/05/13 07:14:59;;;;;;;4.47;3.10;;;19.10;66.70;;;18.52;55.62;98201.75;5072691;28;20448;-72
2022/05/13 07:17:26;;;;;;;7.57;3.07;;;19.30;66.50;;;18.51;53.83;98209.16;5086430;28;20955;-73
2022/05/13 07:19:54;;;;;;;5.20;2.90;;;19.40;64.40;;;18.53;54.55;98203.41;5080306;28;20509;-72
2022/05/13 07:22:21;;;;;;;3.93;3.33;;;19.40;64.90;;;18.48;55.78;98198.72;5077022;28;20841;-72
2022/05/13 07:24:48;;;;;;;6.20;3.30;;;19.30;65.80;;;18.80;54.99;98199.75;5078016;28;20459;-72
2022/05/13 07:27:16;;;;;;;4.60;3.50;;;19.60;65.70;;;19.36;53.74;98195.66;5078842;28;20469;-72
2022/05/13 07:29:43;;;;;;;4.53;3.23;;;20.00;65.20;;;19.74;52.26;98190.81;5087559;28;20494;-73
2022/05/13 07:32:11;;;;;;;3.37;3.10;;;20.50;64.10;;;19.71;52.73;98196.00;5078229;28;20454;-74
2022/05/13 07:34:39;;;;;;;4.20;2.80;;;20.60;64.10;;;19.30;52.05;98169.31;5075174;28;20463;-74
2022/05/13 07:37:06;;;;;;;6.30;3.63;;;20.50;62.90;;;19.40;53.69;98207.72;5076936;28;20811;-72
2022/05/13 07:42:19;;;;;;;4.57;3.00;;;20.60;63.50;;;19.82;51.86;98228.66;5091281;28;20500;-72
2022/05/13 07:44:46;;;;;;;6.13;3.50;;;20.60;62.60;;;19.63;52.28;98222.84;5082369;28;20458;-72
2022/05/13 07:47:18;;;;;;;5.20;2.80;;;20.60;62.70;;;19.59;50.29;98226.41;5081489;28;20574;-72
2022/05/13 07:49:45;;;;;;;5.60;3.10;;;20.50;60.60;;;19.03;51.68;98225.06;5077360;28;20546;-72
2022/05/13 07:52:13;;;;;;;3.63;3.17;;;20.00;60.80;;;19.15;50.91;98225.69;5073627;28;20451;-71
2022/05/13 07:54:41;;;;;;;2.73;2.53;;;19.90;60.70;;;19.16;51.07;98221.84;5076028;28;20499;-74
2022/05/13 07:57:09;;;;;;;2.57;2.17;;;20.10;60.60;;;19.33;50.80;98231.78;5073305;28;20481;-74
2022/05/13 08:00:24;;;;;;;5.40;2.90;;;20.10;60.60;;;19.67;49.69;98225.88;5073365;28;20524;-74
2022/05/13 08:02:26;;;;;;;2.80;2.20;;;20.30;60.10;;;19.78;47.93;98213.81;5063046;28;20460;-75
2022/05/13 08:04:53;;;;;;;7.17;2.90;;;20.60;58.50;;;20.28;47.85;98199.66;5079942;28;20454;-73
2022/05/13 08:07:21;;;;;;;2.50;2.30;;;21.00;58.90;;;20.08;46.59;98203.22;5080526;28;20461;-72
2022/05/13 08:09:48;;;;;;;3.00;2.50;;;21.00;57.00;;;19.75;47.86;98213.56;5080034;28;20498;-74
2022/05/13 08:12:14;;;;;;;2.67;2.20;;;20.60;57.40;;;19.53;48.39;98209.13;5081025;28;20531;-75
2022/05/13 08:14:41;;;;;;;4.70;2.97;;;20.50;57.70;;;19.01;49.83;98208.09;5097247;28;20542;-74
2022/05/13 08:17:08;;;;;;;12.63;2.50;;;20.00;57.80;;;19.20;49.72;98212.03;5076371;28;20909;-74
2022/05/13 08:19:37;;;;;;;2.70;2.10;;;20.10;58.30;;;19.40;47.86;98202.25;5080736;28;20455;-72
2022/05/13 08:22:05;;;;;;;5.80;2.60;;;20.30;57.00;;;19.59;48.14;98201.75;5080906;28;20536;-73
2022/05/13 08:24:32;;;;;;;5.93;2.00;;;20.30;57.20;;;19.56;47.21;98200.34;5081198;28;20442;-74
2022/05/13 08:26:59;;;;;;;4.03;2.40;;;20.40;56.70;;;20.35;43.58;98205.69;5081582;28;21082;-73
2022/05/13 08:29:26;;;;;;;2.47;2.27;;;21.00;54.50;;;19.93;43.52;98220.47;5093978;28;20456;-76
2022/05/13 08:31:54;;;;;;;6.30;2.13;;;20.80;53.20;;;19.93;44.24;98190.31;5079227;28;20530;-73
2022/05/13 08:34:21;;;;;;;6.63;2.90;;;20.80;54.50;;;20.06;44.03;98200.75;5079269;28;20477;-76
2022/05/13 08:36:50;;;;;;;3.83;2.30;;;20.90;53.80;;;19.84;44.11;98231.09;5073229;28;20845;-73
2022/05/13 08:39:18;;;;;;;8.57;2.60;;;20.80;53.40;;;19.98;44.05;98227.88;5081045;28;20642;-74
2022/05/13 08:42:06;;;;;;;2.93;2.20;;;20.70;53.80;;;19.59;45.22;98215.44;5077553;28;20461;-74
2022/05/13 08:44:33;;;;;;;3.30;2.60;;;20.60;53.80;;;19.44;45.52;98217.03;5073161;28;20462;-77
2022/05/13 08:47:11;;;;;;;5.13;2.63;;;20.50;53.90;;;19.22;46.03;98215.31;5081339;28;20751;-74
2022/05/13 08:49:51;;;;;;;9.30;3.00;;;20.10;54.10;;;19.29;46.00;98211.50;5077486;28;20491;-76
2022/05/13 08:55:26;;;;;;;6.83;2.60;;;20.00;54.30;;;18.98;45.53;98217.66;5074461;28;20466;-75
2022/05/13 08:57:56;;;;;;;3.97;2.50;;;19.90;53.60;;;19.04;46.33;98215.78;5078390;28;20469;-74
2022/05/13 09:00:33;;;;;;;3.23;2.23;;;19.80;53.90;;;19.27;45.51;98225.47;5078265;28;20449;-75
2022/05/13 09:03:08;;;;;;;7.10;2.57;;;20.10;53.70;;;19.08;45.82;98211.44;5071438;28;20453;-75
2022/05/13 09:05:43;;;;;;;6.93;2.50;;;19.90;53.50;;;19.44;45.93;98225.25;5081929;28;20496;-73
2022/05/13 09:08:13;;;;;;;4.13;2.50;;;20.10;54.10;;;19.29;45.52;98222.47;5077434;28;20485;-80
2022/05/13 09:10:55;;;;;;;6.43;2.60;;;20.10;53.70;;;19.39;45.05;98228.00;5079771;28;20544;-81
2022/05/13 09:13:29;;;;;;;4.17;2.97;;;20.20;53.60;;;19.48;45.45;98231.03;5075822;28;20450;-81
2022/05/13 09:15:56;;;;;;;3.07;2.40;;;20.30;53.80;;;19.98;43.98;98217.75;5079369;28;20458;-81
2022/05/13 09:18:34;;;;;;;3.80;2.50;;;20.60;53.50;;;19.89;44.61;98219.34;5077011;28;20524;-79
2022/05/13 09:21:04;;;;;;;6.93;3.17;;;20.80;53.30;;;19.78;45.36;98226.72;5075933;28;20470;-79
2022/05/13 09:23:32;;;;;;;4.53;2.60;;;20.60;53.50;;;19.36;45.71;98217.56;5077712;28;20553;-79
2022/05/13 09:26:09;;;;;;;4.67;2.93;;;20.30;53.40;;;19.68;45.09;98205.59;5074652;28;20454;-79
2022/05/13 09:28:39;;;;;;;4.60;2.40;;;20.50;53.60;;;19.58;45.64;98224.75;5084420;28;20478;-81
2022/05/13 09:31:18;;;;;;;4.67;2.40;;;20.40;53.70;;;19.63;45.17;98228.34;5076459;28;20742;-79
2022/05/13 09:33:47;;;;;;;5.37;2.90;;;20.40;53.20;;;19.65;44.86;98230.81;5077608;28;20460;-81
2022/05/13 09:36:31;;;;;;;3.87;2.57;;;20.40;53.30;;;19.64;44.25;98201.78;5076302;28;20534;-78
2022/05/13 09:39:18;;;;;;;4.40;2.43;;;20.50;53.00;;;19.57;44.07;98218.47;5076823;28;20478;-81
2022/05/13 09:41:46;;;;;;;4.60;2.83;;;20.50;52.50;;;19.31;45.27;98220.28;5085496;28;20463;-82
2022/05/13 09:44:20;;;;;;;3.40;3.00;;;20.20;52.80;;;18.83;46.41;98224.69;5075051;28;20466;-82
2022/05/13 09:46:50;;;;;;;4.83;2.73;;;19.80;53.10;;;18.53;47.34;98228.03;5092924;27;20479;-83
2022/05/13 09:49:27;;;;;;;5.47;2.57;;;19.50;53.70;;;18.59;47.61;98216.06;5085875;28;20451;-82
2022/05/13 09:51:58;;;;;;;5.10;2.53;;;19.50;53.90;;;18.78;46.83;98215.63;5078723;28;20461;-77
2022/05/13 09:54:31;;;;;;;4.60;2.20;;;19.60;53.80;;;19.28;46.50;98215.34;5084265;28;20446;-82
2022/05/13 09:57:10;;;;;;;3.83;2.43;;;20.00;54.00;;;19.49;45.47;98225.28;5082852;28;20447;-78
2022/05/13 09:59:41;;;;;;;4.93;2.53;;;20.30;53.40;;;19.62;45.18;98209.41;5086059;28;20545;-76
2022/05/13 10:02:22;;;;;;;7.70;2.60;;;20.40;53.30;;;19.74;45.31;98211.94;5093677;28;20451;-81
2022/05/13 10:04:52;;;;;;;4.70;2.70;;;20.60;53.60;;;19.50;45.12;98218.72;5093706;28;20883;-81
2022/05/13 10:07:22;;;;;;;4.47;2.97;;;20.40;52.90;;;19.46;45.33;98217.59;5093590;28;21098;-82
2022/05/13 10:15:40;;;;;;;3.47;2.33;;;20.40;52.00;;;20.02;41.87;98221.59;5042516;28;20480;-80
2022/05/13 10:18:19;;;;;;;3.73;2.20;;;20.80;51.40;;;19.95;42.92;98201.84;5073790;28;20537;-82
2022/05/13 10:20:47;;;;;;;4.33;3.00;;;20.70;51.30;;;20.19;42.03;98199.38;5074507;28;20543;-76
2022/05/13 10:23:23;;;;;;;3.80;2.40;;;21.00;51.00;;;20.13;40.89;98191.44;5079140;28;20498;-80
2022/05/13 10:25:58;;;;;;;3.23;2.33;;;21.00;50.40;;;20.17;41.38;98207.06;5076789;28;20458;-80
2022/05/13 10:28:34;;;;;;;5.90;2.90;;;21.00;50.50;;;20.37;41.99;98194.44;5081255;28;20490;-79
2022/05/13 10:31:09;;;;;;;5.03;2.50;;;21.10;50.90;;;20.37;40.90;98198.00;5079412;28;21200;-80
2022/05/13 10:33:43;;;;;;;4.50;2.50;;;21.30;50.40;;;19.89;41.69;98205.63;5086124;28;20451;-81
2022/05/13 10:36:17;;;;;;;5.27;2.80;;;20.90;50.30;;;19.73;42.02;98216.56;5084208;28;20958;-79
2022/05/13 10:38:53;;;;;;;5.33;2.50;;;20.60;50.10;;;19.69;41.31;98204.50;5085056;28;21077;-77
2022/05/13 10:41:32;;;;;;;5.20;2.20;;;20.60;49.90;;;19.68;41.70;98209.16;5078847;28;20463;-83
2022/05/13 10:44:03;;;;;;;4.07;2.40;;;20.50;50.10;;;19.46;41.26;98173.75;5088708;28;20498;-79
2022/05/13 10:46:38;;;;;;;4.93;2.40;;;20.40;49.50;;;19.88;41.30;98190.28;5080134;28;20803;-83
2022/05/13 10:49:05;;;;;;;3.37;2.30;;;20.60;49.90;;;19.91;41.13;98207.00;5084144;28;20474;-81
2022/05/13 10:51:40;;;;;;;3.07;2.20;;;20.80;49.70;;;19.99;40.43;98202.94;5085859;28;20454;-80
2022/05/13 10:54:27;;;;;;;4.37;2.20;;;20.80;49.40;;;20.17;41.37;98187.03;5076358;28;20462;-81